Time;durP1;ratioP1;P1;durP2;ratioP2;P2;SDS_P1;SDS_P2;PMS_P1;PMS_P2;Temp;Humidity;BMP_temperature;BMP_pressure;BME280_temperature;BME280_humidity;BME280_pressure;Samples;Min_cycle;Max_cycle;Signal;HPM_P1;HPM_P2
2024/04/01 00:01:14;;;;;;;1.42;1.13;;;10.20;90.20;;;;;;5113899;28;20134;-72
2024/04/01 00:03:40;;;;;;;2.25;1.40;;;10.20;90.20;;;;;;5113907;28;20035;-72
2024/04/01 00:06:07;;;;;;;1.77;1.38;;;10.20;90.20;;;;;;5114116;28;20436;-73
2024/04/01 00:08:32;;;;;;;2.33;1.38;;;10.20;90.20;;;;;;5114118;28;20415;-73
2024/04/01 00:10:58;;;;;;;2.15;1.13;;;10.10;90.20;;;;;;5113604;28;20040;-72
2024/04/01 00:13:24;;;;;;;1.80;1.35;;;10.10;90.20;;;;;;5095525;28;20042;-73
2024/04/01 00:15:49;;;;;;;1.52;1.20;;;10.10;90.20;;;;;;5113925;28;20089;-72
2024/04/01 00:18:15;;;;;;;1.80;1.30;;;10.00;90.20;;;;;;5113585;28;20044;-72
2024/04/01 00:20:41;;;;;;;2.45;1.33;;;10.00;90.20;;;;;;5113905;28;20093;-72
2024/04/01 00:23:07;;;;;;;2.13;1.10;;;10.00;90.20;;;;;;5113476;28;20063;-72
2024/04/01 00:25:33;;;;;;;1.67;1.17;;;10.00;90.20;;;;;;5114048;28;20043;-73
2024/04/01 00:27:59;;;;;;;1.88;1.25;;;9.90;90.20;;;;;;5113579;28;20460;-72
2024/04/01 00:30:25;;;;;;;2.17;1.20;;;9.90;90.50;;;;;;5076982;28;20429;-72
2024/04/01 00:32:51;;;;;;;1.58;1.00;;;9.90;90.30;;;;;;5095146;28;20040;-72
2024/04/01 00:35:17;;;;;;;1.63;1.10;;;9.90;90.30;;;;;;5093961;28;20109;-73
2024/04/01 00:37:43;;;;;;;1.70;1.00;;;9.90;90.30;;;;;;5078734;28;20239;-72
2024/04/01 00:40:09;;;;;;;0.90;0.90;;;9.80;90.30;;;;;;5113848;28;20043;-73
2024/04/01 00:42:35;;;;;;;1.10;0.95;;;9.80;90.30;;;;;;5095791;28;20043;-72
2024/04/01 00:45:01;;;;;;;1.75;1.13;;;9.80;90.30;;;;;;5113241;28;20046;-72
2024/04/01 00:47:27;;;;;;;2.40;1.33;;;9.80;90.30;;;;;;5113630;28;20487;-73
2024/04/01 00:49:55;;;;;;;2.17;1.20;;;9.80;90.30;;;;;;5094719;28;20059;-72
2024/04/01 00:52:25;;;;;;;1.42;1.05;;;9.70;90.30;;;;;;5094105;28;20050;-72
2024/04/01 00:54:55;;;;;;;1.63;1.10;;;9.70;90.30;;;;;;5094390;28;20123;-72
2024/04/01 00:57:21;;;;;;;1.20;0.90;;;9.70;90.30;;;;;;5094848;28;20043;-72
2024/04/01 00:59:49;;;;;;;1.60;1.02;;;9.60;90.30;;;;;;5093520;28;20047;-72
2024/04/01 01:02:16;;;;;;;1.23;0.95;;;9.60;90.30;;;;;;5113428;28;20502;-72
2024/04/01 01:04:44;;;;;;;1.85;1.02;;;9.60;90.30;;;;;;5112980;28;20036;-72
2024/04/01 01:07:11;;;;;;;1.65;1.00;;;9.60;90.30;;;;;;5094624;28;20043;-72
2024/04/01 01:09:39;;;;;;;1.52;0.98;;;9.60;90.30;;;;;;5113159;28;20039;-72
2024/04/01 01:12:05;;;;;;;0.88;0.75;;;9.60;90.30;;;;;;5113313;28;20122;-72
2024/04/01 01:14:31;;;;;;;2.58;1.35;;;9.60;90.30;;;;;;5112925;28;20040;-72
2024/04/01 01:16:57;;;;;;;1.00;0.80;;;9.50;90.30;;;;;;5113006;28;20449;-72
2024/04/01 01:19:24;;;;;;;1.20;1.00;;;9.50;90.30;;;;;;5094605;28;20043;-72
2024/04/01 01:21:50;;;;;;;2.00;1.20;;;9.50;90.40;;;;;;5061119;28;20043;-72
2024/04/01 01:24:16;;;;;;;1.30;1.10;;;9.50;90.40;;;;;;5112566;28;20127;-72
2024/04/01 01:26:45;;;;;;;1.88;1.23;;;9.50;90.30;;;;;;5094407;28;20067;-72
2024/04/01 01:29:11;;;;;;;2.45;1.00;;;9.50;90.40;;;;;;5112539;28;20051;-72
2024/04/01 01:31:39;;;;;;;0.93;0.90;;;9.50;90.40;;;;;;5112433;28;20050;-72
2024/04/01 01:34:05;;;;;;;1.55;1.10;;;9.50;90.40;;;;;;5112596;28;20040;-72
2024/04/01 01:36:31;;;;;;;1.65;1.23;;;9.40;90.40;;;;;;5112667;28;20042;-72
2024/04/01 01:38:57;;;;;;;0.80;0.80;;;9.40;90.40;;;;;;5112399;28;20032;-72
2024/04/01 01:41:22;;;;;;;1.35;0.98;;;9.50;90.40;;;;;;5060333;28;20039;-73
2024/04/01 01:43:48;;;;;;;1.17;0.80;;;9.40;90.40;;;;;;5112214;28;20502;-72
2024/04/01 01:46:18;;;;;;;1.05;0.90;;;9.40;90.40;;;;;;5093783;28;20044;-73
2024/04/01 01:48:43;;;;;;;1.08;0.90;;;9.40;90.40;;;;;;5112637;28;20047;-73
2024/04/01 01:51:09;;;;;;;1.55;1.00;;;9.40;90.40;;;;;;5112821;28;20035;-72
2024/04/01 01:53:34;;;;;;;0.73;0.70;;;9.40;90.40;;;;;;5112429;28;20048;-72
2024/04/01 01:56:00;;;;;;;1.00;0.82;;;9.40;90.40;;;;;;5093917;28;20035;-73
2024/04/01 01:58:26;;;;;;;0.80;0.70;;;9.40;90.40;;;;;;5112042;28;20040;-72
2024/04/01 02:00:51;;;;;;;1.02;0.80;;;9.40;90.40;;;;;;5077179;28;20089;-72
2024/04/01 02:03:18;;;;;;;0.95;0.80;;;9.40;90.40;;;;;;5094054;28;20063;-72
2024/04/01 02:05:49;;;;;;;0.82;0.70;;;9.30;90.40;;;;;;5094087;28;20537;-73
2024/04/01 02:08:15;;;;;;;0.80;0.65;;;9.30;90.40;;;;;;5111926;28;20052;-72
2024/04/01 02:10:41;;;;;;;0.80;0.70;;;9.40;90.40;;;;;;5093628;28;20040;-73
2024/04/01 02:13:09;;;;;;;1.05;0.70;;;9.30;90.40;;;;;;5094040;28;20437;-73
2024/04/01 02:15:35;;;;;;;1.35;0.70;;;9.40;90.40;;;;;;5112119;28;20035;-73
2024/04/01 02:18:00;;;;;;;1.25;0.80;;;9.30;90.40;;;;;;5112441;28;20470;-72
2024/04/01 02:20:26;;;;;;;0.77;0.70;;;9.30;90.40;;;;;;5112150;28;20118;-72
2024/04/01 02:22:52;;;;;;;1.85;0.52;;;9.30;90.40;;;;;;5069211;28;20550;-73
2024/04/01 02:25:18;;;;;;;0.63;0.60;;;9.30;90.40;;;;;;5052437;28;20044;-72
2024/04/01 02:27:47;;;;;;;0.77;0.52;;;9.30;90.40;;;;;;5069167;28;20405;-72
2024/04/01 02:30:19;;;;;;;0.50;0.50;;;9.20;90.40;;;;;;5009455;28;20046;-73
2024/04/01 02:32:45;;;;;;;0.50;0.50;;;9.30;90.40;;;;;;4993529;28;20065;-72
2024/04/01 02:35:11;;;;;;;1.40;0.70;;;9.30;90.40;;;;;;5010141;28;20159;-72
2024/04/01 02:37:36;;;;;;;0.35;0.35;;;9.30;90.40;;;;;;5009424;28;20061;-73
2024/04/01 02:40:05;;;;;;;0.50;0.50;;;9.30;90.40;;;;;;5009912;28;20042;-72
2024/04/01 02:42:31;;;;;;;0.57;0.50;;;9.40;90.40;;;;;;4977338;28;20044;-72
2024/04/01 02:44:56;;;;;;;0.35;0.30;;;9.30;90.40;;;;;;5009424;28;20037;-72
2024/04/01 02:47:22;;;;;;;1.23;0.63;;;9.30;90.40;;;;;;5009887;28;20073;-73
2024/04/01 02:49:48;;;;;;;0.30;0.30;;;9.30;90.40;;;;;;4992779;28;20113;-72
2024/04/01 02:52:14;;;;;;;0.60;0.45;;;9.30;90.40;;;;;;5009257;28;20050;-72
2024/04/01 02:54:40;;;;;;;0.95;0.40;;;9.30;90.40;;;;;;4985426;28;20486;-73
2024/04/01 02:57:06;;;;;;;0.38;0.38;;;9.30;90.40;;;;;;4976844;28;20054;-72
2024/04/01 02:59:32;;;;;;;0.52;0.52;;;9.30;90.70;;;;;;4993011;28;20518;-72
2024/04/01 03:01:57;;;;;;;0.40;0.40;;;9.30;90.40;;;;;;5042295;28;20138;-73
2024/04/01 03:04:23;;;;;;;0.40;0.40;;;9.20;90.40;;;;;;5052800;28;20049;-72
2024/04/01 03:06:49;;;;;;;0.50;0.50;;;9.20;90.40;;;;;;5035384;28;20044;-73
2024/04/01 03:09:17;;;;;;;1.10;0.50;;;9.20;90.40;;;;;;5036071;28;20045;-72
2024/04/01 03:11:43;;;;;;;0.30;0.30;;;9.20;90.40;;;;;;5052252;28;20563;-73
2024/04/01 03:14:10;;;;;;;0.75;0.43;;;9.20;90.60;;;;;;5035757;28;20045;-72
2024/04/01 03:16:35;;;;;;;0.40;0.40;;;9.20;90.50;;;;;;5035378;28;20040;-73
2024/04/01 03:19:01;;;;;;;0.47;0.40;;;9.20;90.50;;;;;;5035395;28;20459;-73
2024/04/01 03:21:27;;;;;;;0.38;0.38;;;9.20;90.50;;;;;;5052024;28;20123;-72
2024/04/01 03:23:56;;;;;;;0.40;0.40;;;9.20;90.50;;;;;;5035401;28;20045;-72
2024/04/01 03:26:22;;;;;;;0.30;0.30;;;9.20;90.50;;;;;;5051861;28;20055;-72
2024/04/01 03:28:47;;;;;;;0.60;0.60;;;9.10;90.40;;;;;;5052249;28;20041;-72
2024/04/01 03:31:13;;;;;;;0.30;0.30;;;9.10;90.50;;;;;;5042568;28;20511;-72
2024/04/01 03:33:39;;;;;;;0.82;0.32;;;9.10;90.50;;;;;;5114561;28;20055;-72
2024/04/01 03:36:05;;;;;;;0.40;0.40;;;9.00;90.50;;;;;;5114374;28;20098;-73
2024/04/01 03:38:30;;;;;;;0.63;0.40;;;9.00;90.50;;;;;;5096224;28;20036;-73
2024/04/01 03:40:56;;;;;;;0.55;0.50;;;9.00;90.60;;;;;;5114748;28;20062;-72
2024/04/01 03:43:23;;;;;;;0.50;0.40;;;9.00;90.60;;;;;;5114432;28;20078;-72
2024/04/01 03:46:01;;;;;;;0.30;0.30;;;9.00;90.60;;;;;;5077813;28;20042;-72
2024/04/01 03:48:28;;;;;;;0.73;0.50;;;8.90;90.60;;;;;;5095981;28;20126;-72
2024/04/01 03:50:54;;;;;;;0.40;0.40;;;9.10;90.70;;;;;;5114239;28;20126;-73
2024/04/01 03:53:20;;;;;;;0.47;0.45;;;8.90;90.60;;;;;;5114651;28;20090;-73
2024/04/01 03:55:46;;;;;;;0.55;0.40;;;8.90;90.60;;;;;;5071347;28;20060;-73
2024/04/01 03:58:14;;;;;;;0.50;0.43;;;8.90;90.60;;;;;;5071865;28;20127;-73
2024/04/01 04:00:39;;;;;;;0.40;0.40;;;8.90;90.90;;;;;;5014988;28;20041;-72
2024/04/01 04:03:07;;;;;;;0.43;0.40;;;8.90;90.60;;;;;;5031747;28;20038;-73
2024/04/01 04:05:35;;;;;;;0.47;0.47;;;8.90;90.60;;;;;;5031850;28;20049;-72
2024/04/01 04:08:01;;;;;;;0.80;0.50;;;8.90;90.70;;;;;;5032145;28;20049;-72
2024/04/01 04:10:28;;;;;;;0.52;0.50;;;8.80;90.60;;;;;;5031584;28;20037;-72
2024/04/01 04:12:53;;;;;;;0.28;0.28;;;8.80;90.60;;;;;;5032015;28;20065;-72
2024/04/01 04:15:19;;;;;;;0.43;0.40;;;8.80;90.70;;;;;;5015014;28;20041;-72
2024/04/01 04:17:48;;;;;;;0.30;0.30;;;8.70;90.60;;;;;;5032063;28;20458;-72
2024/04/01 04:20:16;;;;;;;0.52;0.50;;;8.80;90.70;;;;;;5031072;28;20041;-74
2024/04/01 04:22:44;;;;;;;0.70;0.50;;;8.80;90.70;;;;;;5031132;28;20128;-73
2024/04/01 04:25:10;;;;;;;0.32;0.32;;;8.70;90.70;;;;;;5031502;28;20041;-72
2024/04/01 04:27:36;;;;;;;0.38;0.38;;;8.70;90.70;;;;;;5065412;28;20511;-73
2024/04/01 04:30:02;;;;;;;0.52;0.47;;;8.70;90.70;;;;;;5070911;28;20496;-73
2024/04/01 04:32:28;;;;;;;0.35;0.35;;;8.70;90.70;;;;;;5054810;28;20506;-72
2024/04/01 04:34:53;;;;;;;0.35;0.35;;;8.70;90.70;;;;;;5095528;28;20042;-73
2024/04/01 04:37:19;;;;;;;0.70;0.40;;;8.70;90.70;;;;;;5095906;28;20123;-73
2024/04/01 04:39:48;;;;;;;0.30;0.30;;;8.70;90.70;;;;;;5095838;28;20042;-72
2024/04/01 04:42:13;;;;;;;0.30;0.30;;;8.70;90.70;;;;;;5113433;28;20054;-72
2024/04/01 04:44:39;;;;;;;0.50;0.40;;;8.70;90.70;;;;;;5113510;28;20043;-72
2024/04/01 04:47:05;;;;;;;0.30;0.30;;;8.60;90.70;;;;;;5113702;28;20035;-72
2024/04/01 04:49:31;;;;;;;0.45;0.40;;;8.70;90.70;;;;;;5113311;28;20035;-73
2024/04/01 04:51:56;;;;;;;0.88;0.40;;;8.60;90.70;;;;;;5113616;28;20147;-73
2024/04/01 04:54:22;;;;;;;0.60;0.55;;;8.60;90.70;;;;;;5113404;28;20118;-72
2024/04/01 04:56:48;;;;;;;0.30;0.30;;;8.60;90.70;;;;;;5094960;28;20066;-72
2024/04/01 04:59:13;;;;;;;0.60;0.50;;;8.70;90.70;;;;;;5113192;28;20036;-73
2024/04/01 05:01:39;;;;;;;0.28;0.28;;;8.70;90.70;;;;;;5113924;28;20050;-73
2024/04/01 05:04:05;;;;;;;0.40;0.40;;;8.70;90.60;;;;;;5095222;28;20048;-72
2024/04/01 05:06:32;;;;;;;0.63;0.43;;;8.70;90.60;;;;;;5113141;28;20517;-72
2024/04/01 05:08:57;;;;;;;0.30;0.30;;;8.70;90.60;;;;;;5113130;28;20054;-73
2024/04/01 05:11:23;;;;;;;0.50;0.50;;;8.70;90.60;;;;;;5112846;28;20039;-72
2024/04/01 05:13:48;;;;;;;0.40;0.38;;;8.70;90.60;;;;;;5113125;28;20051;-73
2024/04/01 05:16:19;;;;;;;0.40;0.30;;;8.70;90.60;;;;;;5094674;28;20035;-73
2024/04/01 05:18:46;;;;;;;0.40;0.40;;;8.70;90.60;;;;;;5095303;28;20092;-73
2024/04/01 05:21:12;;;;;;;0.32;0.32;;;8.80;90.60;;;;;;5078081;28;20048;-73
2024/04/01 05:23:38;;;;;;;0.90;0.50;;;8.80;90.60;;;;;;5112930;28;20052;-73
2024/04/01 05:26:05;;;;;;;0.50;0.47;;;8.80;90.60;;;;;;5112912;28;20093;-73
2024/04/01 05:28:31;;;;;;;0.50;0.50;;;8.90;90.70;;;;;;5112880;28;20125;-72
2024/04/01 05:30:56;;;;;;;0.40;0.40;;;8.70;90.60;;;;;;5094778;28;20450;-72
2024/04/01 05:33:23;;;;;;;0.32;0.32;;;8.70;90.90;;;;;;5112993;28;20035;-72
2024/04/01 05:35:49;;;;;;;0.38;0.35;;;8.80;90.60;;;;;;5113013;28;20062;-72
2024/04/01 05:38:16;;;;;;;0.40;0.40;;;8.70;90.60;;;;;;5093000;28;20044;-72
2024/04/01 05:40:42;;;;;;;0.65;0.40;;;8.80;90.60;;;;;;5112809;28;20088;-73
2024/04/01 05:43:07;;;;;;;0.40;0.40;;;8.90;90.60;;;;;;5112638;28;20059;-72
2024/04/01 05:45:33;;;;;;;0.50;0.50;;;8.80;90.60;;;;;;5113227;28;20044;-72
2024/04/01 05:47:59;;;;;;;0.30;0.30;;;8.80;90.60;;;;;;5112761;28;20044;-72
2024/04/01 05:50:25;;;;;;;0.30;0.30;;;8.80;90.60;;;;;;5112512;28;20054;-73
2024/04/01 05:52:50;;;;;;;0.60;0.50;;;8.90;90.60;;;;;;5112985;28;20036;-73
2024/04/01 05:55:16;;;;;;;0.30;0.30;;;8.80;90.60;;;;;;5095175;28;20059;-72
2024/04/01 05:57:42;;;;;;;0.30;0.30;;;8.90;90.60;;;;;;5094310;28;20494;-73
2024/04/01 06:00:08;;;;;;;0.30;0.30;;;8.90;90.60;;;;;;5093331;28;20040;-73
2024/04/01 06:02:34;;;;;;;0.40;0.40;;;8.90;90.60;;;;;;5112494;28;20055;-73
2024/04/01 06:04:59;;;;;;;0.50;0.50;;;9.00;90.60;;;;;;5112393;28;20043;-73
2024/04/01 06:07:26;;;;;;;0.43;0.40;;;9.00;90.50;;;;;;5113042;28;20038;-72
2024/04/01 06:09:55;;;;;;;0.30;0.30;;;9.00;90.50;;;;;;5112221;28;20394;-73
2024/04/01 06:12:21;;;;;;;0.30;0.30;;;9.10;90.50;;;;;;5094159;28;20464;-73
2024/04/01 06:14:47;;;;;;;0.45;0.40;;;9.10;90.50;;;;;;5112481;28;20047;-73
2024/04/01 06:17:12;;;;;;;1.20;0.30;;;9.10;90.50;;;;;;5112112;28;20036;-73
2024/04/01 06:19:38;;;;;;;0.55;0.32;;;9.10;90.50;;;;;;5076175;28;20173;-73
2024/04/01 06:22:04;;;;;;;0.43;0.43;;;9.10;90.50;;;;;;5112384;28;20040;-73
2024/04/01 06:24:30;;;;;;;0.30;0.30;;;9.20;90.50;;;;;;5112129;28;20535;-72
2024/04/01 06:26:55;;;;;;;0.30;0.30;;;9.20;90.50;;;;;;5112049;28;20039;-73
2024/04/01 06:29:21;;;;;;;0.30;0.30;;;9.20;90.50;;;;;;5115918;28;20126;-73
2024/04/01 06:31:47;;;;;;;0.35;0.35;;;9.20;90.50;;;;;;5115641;28;20065;-73
2024/04/01 06:34:13;;;;;;;0.30;0.30;;;9.20;90.80;;;;;;5116019;28;20384;-72
2024/04/01 06:36:38;;;;;;;0.65;0.45;;;9.20;90.50;;;;;;5097246;28;20167;-73
2024/04/01 06:39:05;;;;;;;0.70;0.40;;;9.30;90.50;;;;;;5115663;28;20043;-72
2024/04/01 06:41:31;;;;;;;0.32;0.32;;;9.30;90.50;;;;;;5097455;28;20035;-73
2024/04/01 06:43:57;;;;;;;0.50;0.50;;;9.30;90.50;;;;;;5097164;28;20039;-73
2024/04/01 06:46:23;;;;;;;0.40;0.40;;;9.30;90.50;;;;;;5115731;28;20127;-72
2024/04/01 06:48:48;;;;;;;0.45;0.45;;;9.40;90.50;;;;;;5115469;28;20048;-73
2024/04/01 06:51:17;;;;;;;0.80;0.45;;;9.40;90.50;;;;;;5115921;28;20514;-74
2024/04/01 06:53:42;;;;;;;0.40;0.40;;;9.40;90.50;;;;;;5097339;28;20479;-73
2024/04/01 06:56:08;;;;;;;1.13;0.40;;;9.40;90.50;;;;;;5115605;28;20035;-72
2024/04/01 06:58:34;;;;;;;0.70;0.40;;;9.40;90.70;;;;;;5114981;28;20088;-72
2024/04/01 07:00:59;;;;;;;0.57;0.50;;;9.50;90.50;;;;;;5096912;28;20052;-72
2024/04/01 07:03:25;;;;;;;0.70;0.50;;;9.50;90.50;;;;;;5097144;28;20154;-74
2024/04/01 07:05:53;;;;;;;0.63;0.50;;;9.50;90.40;;;;;;5115247;28;20074;-73
2024/04/01 07:08:19;;;;;;;0.50;0.50;;;9.50;90.40;;;;;;5115299;28;20040;-72
2024/04/01 07:10:44;;;;;;;0.28;0.28;;;9.60;90.50;;;;;;5115108;28;20475;-73
2024/04/01 07:13:10;;;;;;;0.40;0.40;;;9.60;90.40;;;;;;5095664;28;20040;-73
2024/04/01 07:15:36;;;;;;;0.47;0.47;;;9.60;90.40;;;;;;5096916;28;20043;-72
2024/04/01 07:18:02;;;;;;;0.65;0.50;;;9.60;90.40;;;;;;5114909;28;20134;-73
2024/04/01 07:20:28;;;;;;;0.30;0.30;;;9.60;90.40;;;;;;5095547;28;20121;-73
2024/04/01 07:22:53;;;;;;;0.57;0.55;;;9.60;90.40;;;;;;5096609;28;20120;-73
2024/04/01 07:25:19;;;;;;;0.25;0.25;;;9.60;90.40;;;;;;5096706;28;20483;-73
2024/04/01 07:27:45;;;;;;;0.47;0.40;;;9.70;90.40;;;;;;5114673;28;20487;-73
2024/04/01 07:30:11;;;;;;;0.50;0.40;;;9.70;90.50;;;;;;5114631;28;20122;-73
2024/04/01 07:32:37;;;;;;;0.43;0.43;;;9.80;90.50;;;;;;5114670;28;20118;-72
2024/04/01 07:35:04;;;;;;;0.85;0.50;;;9.80;90.50;;;;;;5115081;28;20065;-73
2024/04/01 07:37:30;;;;;;;0.65;0.55;;;9.80;90.50;;;;;;5096384;28;20368;-74
2024/04/01 07:39:57;;;;;;;0.38;0.38;;;9.80;90.50;;;;;;5094707;28;20036;-73
2024/04/01 07:42:23;;;;;;;0.82;0.63;;;9.80;90.50;;;;;;5115048;28;20065;-73
2024/04/01 07:44:51;;;;;;;0.55;0.55;;;9.80;90.50;;;;;;5096297;28;20630;-72
2024/04/01 07:47:17;;;;;;;0.60;0.60;;;9.80;90.50;;;;;;5096123;28;20040;-72
2024/04/01 07:49:43;;;;;;;0.30;0.30;;;9.80;90.50;;;;;;5114607;28;20040;-73
2024/04/01 07:52:09;;;;;;;0.90;0.70;;;9.80;90.50;;;;;;5114344;28;20039;-73
2024/04/01 07:54:35;;;;;;;0.52;0.52;;;9.90;90.50;;;;;;5114227;28;20039;-73
2024/04/01 07:57:02;;;;;;;0.55;0.55;;;9.90;90.50;;;;;;5095774;28;20159;-73
2024/04/01 07:59:33;;;;;;;0.40;0.40;;;9.80;90.50;;;;;;5114180;28;20042;-72
2024/04/01 08:02:00;;;;;;;0.45;0.45;;;9.90;90.60;;;;;;5114075;28;20127;-73
2024/04/01 08:04:27;;;;;;;1.58;0.40;;;9.90;90.60;;;;;;5095947;28;20047;-73
2024/04/01 08:06:54;;;;;;;0.60;0.50;;;9.90;90.60;;;;;;5114653;28;20084;-73
2024/04/01 08:09:21;;;;;;;0.45;0.40;;;9.90;90.60;;;;;;5114477;28;20036;-73
2024/04/01 08:11:47;;;;;;;0.50;0.43;;;10.00;90.60;;;;;;5114245;28;20044;-73
2024/04/01 08:14:12;;;;;;;0.80;0.63;;;9.90;90.60;;;;;;5114136;28;20036;-73
2024/04/01 08:16:38;;;;;;;0.82;0.80;;;10.00;90.60;;;;;;5114497;28;20043;-73
2024/04/01 08:19:04;;;;;;;1.17;0.60;;;9.90;90.60;;;;;;5094369;28;20101;-73
2024/04/01 08:21:29;;;;;;;0.70;0.70;;;10.00;90.60;;;;;;5113841;28;20098;-73
2024/04/01 08:23:55;;;;;;;0.50;0.50;;;10.00;90.60;;;;;;5114545;28;20052;-73
2024/04/01 08:26:21;;;;;;;0.65;0.60;;;10.10;90.60;;;;;;5095405;28;20043;-72
2024/04/01 08:28:46;;;;;;;0.60;0.60;;;10.10;90.60;;;;;;5062802;28;20043;-72
2024/04/01 08:31:12;;;;;;;0.70;0.70;;;10.10;90.60;;;;;;5113699;28;20043;-72
2024/04/01 08:33:38;;;;;;;0.60;0.60;;;10.10;90.60;;;;;;5095410;28;20040;-72
2024/04/01 08:36:04;;;;;;;0.77;0.57;;;10.10;90.60;;;;;;5095435;28;20475;-72
2024/04/01 08:38:30;;;;;;;0.80;0.80;;;10.10;90.60;;;;;;5095427;28;20036;-73
2024/04/01 08:40:58;;;;;;;0.70;0.70;;;10.20;90.60;;;;;;5113568;28;20052;-73
2024/04/01 08:43:35;;;;;;;0.82;0.70;;;10.20;90.60;;;;;;5113958;28;20071;-72
2024/04/01 08:46:02;;;;;;;0.85;0.70;;;10.20;90.60;;;;;;5113558;28;20056;-72
2024/04/01 08:48:31;;;;;;;0.50;0.50;;;10.20;90.60;;;;;;5113797;28;20105;-72
2024/04/01 08:51:03;;;;;;;0.60;0.60;;;10.20;90.70;;;;;;5112609;28;20073;-72
2024/04/01 08:53:51;;;;;;;0.82;0.63;;;10.20;90.70;;;;;;5113762;28;20119;-73
2024/04/01 08:56:19;;;;;;;0.80;0.80;;;10.20;90.80;;;;;;5097804;28;20050;-73
2024/04/01 08:58:45;;;;;;;0.93;0.60;;;10.20;90.60;;;;;;5095312;28;20136;-74
2024/04/01 09:01:11;;;;;;;1.80;1.10;;;10.30;90.70;;;;;;5095415;28;20043;-73
2024/04/01 09:03:37;;;;;;;1.20;0.80;;;10.30;90.70;;;;;;5113275;28;20119;-73
2024/04/01 09:06:04;;;;;;;1.05;0.93;;;10.30;90.70;;;;;;5078146;28;20495;-73
2024/04/01 09:08:30;;;;;;;0.73;0.73;;;10.30;90.70;;;;;;5095707;28;20402;-73
2024/04/01 09:10:56;;;;;;;1.42;1.20;;;10.40;90.70;;;;;;5094905;28;20051;-73
2024/04/01 09:13:22;;;;;;;1.00;0.90;;;10.40;90.60;;;;;;5113268;28;20036;-73
2024/04/01 09:15:49;;;;;;;1.45;1.05;;;10.40;90.60;;;;;;5113030;28;20416;-73
2024/04/01 09:18:16;;;;;;;1.13;0.90;;;10.40;90.60;;;;;;5077987;28;20043;-74
2024/04/01 09:20:43;;;;;;;1.60;0.93;;;10.40;90.70;;;;;;5093652;28;20086;-73
2024/04/01 09:23:09;;;;;;;1.40;1.00;;;10.30;90.60;;;;;;5113641;28;20165;-74
2024/04/01 09:25:35;;;;;;;1.40;1.10;;;10.40;90.70;;;;;;5113500;28;20074;-74
2024/04/01 09:28:02;;;;;;;1.20;0.85;;;10.40;90.70;;;;;;5096012;28;20109;-75
2024/04/01 09:30:27;;;;;;;0.90;0.90;;;10.40;90.80;;;;;;5076692;28;20063;-73
2024/04/01 09:32:53;;;;;;;0.70;0.70;;;10.40;90.80;;;;;;5092752;28;20141;-73
2024/04/01 09:35:23;;;;;;;0.70;0.70;;;10.40;90.80;;;;;;5112854;28;20036;-73
2024/04/01 09:37:49;;;;;;;1.30;0.90;;;10.40;90.80;;;;;;5077546;28;20559;-73
2024/04/01 09:40:16;;;;;;;0.75;0.70;;;10.50;90.80;;;;;;5094647;28;20028;-73
2024/04/01 09:42:44;;;;;;;1.48;0.90;;;10.50;90.80;;;;;;5112912;28;20055;-73
2024/04/01 09:45:09;;;;;;;0.80;0.80;;;10.50;90.80;;;;;;5094675;28;20042;-73
2024/04/01 09:47:40;;;;;;;0.80;0.80;;;10.50;90.80;;;;;;5113218;28;20031;-73
2024/04/01 09:50:07;;;;;;;1.00;0.80;;;10.60;91.10;;;;;;5112542;28;20051;-73
2024/04/01 09:52:34;;;;;;;0.60;0.60;;;10.60;90.80;;;;;;5093921;28;20040;-73
2024/04/01 09:55:07;;;;;;;0.85;0.85;;;10.70;90.70;;;;;;5093248;28;20097;-74
2024/04/01 09:58:12;;;;;;;1.40;0.95;;;10.70;90.70;;;;;;5112375;28;20031;-73
2024/04/01 10:00:51;;;;;;;0.60;0.60;;;10.80;90.70;;;;;;5112336;28;20047;-74
2024/04/01 10:03:46;;;;;;;0.63;0.63;;;10.80;90.90;;;;;;5075666;28;20047;-73
2024/04/01 10:06:52;;;;;;;0.60;0.57;;;10.80;90.70;;;;;;5110688;28;20036;-74
2024/04/01 10:09:47;;;;;;;0.77;0.77;;;10.90;90.70;;;;;;5111957;28;20083;-73
2024/04/01 10:12:50;;;;;;;0.65;0.65;;;10.90;90.60;;;;;;5112388;28;20046;-74
2024/04/01 10:15:49;;;;;;;0.90;0.80;;;11.00;90.60;;;;;;5075822;28;20495;-73
2024/04/01 10:18:48;;;;;;;1.15;0.80;;;10.90;90.60;;;;;;5112509;28;20043;-73
2024/04/01 10:21:36;;;;;;;0.77;0.70;;;10.90;90.60;;;;;;5112052;28;20058;-73
2024/04/01 10:24:39;;;;;;;1.13;0.70;;;10.80;90.70;;;;;;5093945;28;20048;-73
2024/04/01 10:27:29;;;;;;;0.73;0.60;;;10.90;90.80;;;;;;5109997;28;20039;-73
2024/04/01 10:30:30;;;;;;;0.82;0.80;;;10.90;90.80;;;;;;5095877;28;20051;-73
2024/04/01 10:33:21;;;;;;;0.70;0.70;;;10.90;90.70;;;;;;5111435;28;20078;-72
2024/04/01 10:36:00;;;;;;;;;;;10.90;90.70;;;;;;5092833;28;20047;-72
2024/04/01 10:38:57;;;;;;;1.20;0.95;;;10.90;90.70;;;;;;5112038;28;20002;-73
2024/04/01 10:42:00;;;;;;;0.88;0.70;;;10.90;90.70;;;;;;5096584;28;20031;-74
2024/04/01 10:44:58;;;;;;;0.93;0.80;;;10.90;90.70;;;;;;5111533;28;20036;-75
2024/04/01 10:48:01;;;;;;;1.45;0.95;;;11.00;90.70;;;;;;5112074;28;20052;-76
2024/04/01 10:51:01;;;;;;;0.80;0.80;;;11.00;90.60;;;;;;5111556;28;20024;-75
2024/04/01 10:53:51;;;;;;;1.00;0.90;;;11.10;90.90;;;;;;5098763;28;20035;-76
2024/04/01 10:56:52;;;;;;;1.55;1.17;;;11.10;90.50;;;;;;5090039;28;20123;-76
2024/04/01 10:59:52;;;;;;;1.35;1.10;;;11.10;90.50;;;;;;5109867;28;20055;-73
2024/04/01 11:02:47;;;;;;;1.70;1.15;;;11.10;90.50;;;;;;5094324;28;20047;-72
2024/04/01 11:05:52;;;;;;;1.30;1.05;;;11.20;90.50;;;;;;5112165;28;20080;-75
2024/04/01 11:08:40;;;;;;;1.63;1.10;;;11.20;90.50;;;;;;5107731;28;20463;-74
2024/04/01 11:11:28;;;;;;;2.13;1.10;;;11.30;90.50;;;;;;5090427;28;20403;-74
2024/04/01 11:13:54;;;;;;;1.33;1.23;;;11.20;90.40;;;;;;5111029;28;20039;-75
2024/04/01 11:16:24;;;;;;;1.58;1.30;;;11.20;90.40;;;;;;5079987;28;20035;-75
2024/04/01 11:19:01;;;;;;;1.42;1.30;;;11.20;90.40;;;;;;5078084;28;20063;-75
2024/04/01 11:21:41;;;;;;;1.55;1.27;;;11.20;90.50;;;;;;5079860;28;20559;-75
2024/04/01 11:24:25;;;;;;;1.90;1.50;;;11.10;90.40;;;;;;5097289;28;20399;-75
2024/04/01 11:27:21;;;;;;;2.80;1.40;;;11.10;90.50;;;;;;5098104;28;20122;-76
2024/04/01 11:30:13;;;;;;;1.65;1.35;;;11.10;90.50;;;;;;5095875;28;20510;-75
2024/04/01 11:32:45;;;;;;;1.75;1.40;;;11.20;90.50;;;;;;5071710;28;20518;-74
2024/04/01 11:35:22;;;;;;;2.45;1.48;;;11.10;90.50;;;;;;5055069;28;20464;-75
2024/04/01 11:38:02;;;;;;;2.53;1.35;;;11.10;90.50;;;;;;5055448;28;20130;-73
2024/04/01 11:40:31;;;;;;;1.45;1.30;;;11.10;90.50;;;;;;5071748;28;20044;-74
2024/04/01 11:43:03;;;;;;;1.60;1.33;;;11.10;90.50;;;;;;5055272;28;20503;-74
2024/04/01 11:45:32;;;;;;;1.98;1.40;;;11.10;90.50;;;;;;5071767;28;20148;-74
2024/04/01 11:47:59;;;;;;;1.17;1.02;;;11.20;90.50;;;;;;5038588;28;20044;-73
2024/04/01 11:50:25;;;;;;;1.58;1.20;;;11.30;90.50;;;;;;5054862;28;20040;-74
2024/04/01 11:52:59;;;;;;;1.20;1.10;;;11.30;90.40;;;;;;5054876;28;20053;-74
2024/04/01 11:55:26;;;;;;;2.33;1.10;;;11.40;90.40;;;;;;5038924;28;20040;-73
2024/04/01 11:57:51;;;;;;;1.20;1.10;;;11.50;90.30;;;;;;5052726;28;20132;-75
2024/04/01 12:00:23;;;;;;;2.97;1.10;;;11.50;90.20;;;;;;5038063;28;20076;-74
2024/04/01 12:02:54;;;;;;;1.70;0.90;;;11.60;90.20;;;;;;5061536;28;20067;-74
2024/04/01 12:05:20;;;;;;;1.75;1.00;;;11.60;90.10;;;;;;5114044;28;20039;-75
2024/04/01 12:07:49;;;;;;;1.77;1.20;;;11.70;90.00;;;;;;5078781;28;20135;-75
2024/04/01 12:10:15;;;;;;;3.28;1.10;;;11.70;89.90;;;;;;5094996;28;20050;-74
2024/04/01 12:12:41;;;;;;;1.08;0.98;;;11.80;89.90;;;;;;5113963;28;20152;-75
2024/04/01 12:15:08;;;;;;;1.20;0.90;;;11.80;89.70;;;;;;5096524;28;20032;-75
2024/04/01 12:17:35;;;;;;;0.98;0.70;;;11.90;89.80;;;;;;5078472;28;20089;-74
2024/04/01 12:20:04;;;;;;;2.55;0.98;;;12.00;89.60;;;;;;5095895;28;20039;-74
2024/04/01 12:22:30;;;;;;;2.05;0.90;;;12.10;89.50;;;;;;5096031;28;20043;-74
2024/04/01 12:24:57;;;;;;;0.95;0.90;;;12.20;89.30;;;;;;5112058;28;20637;-74
2024/04/01 12:27:23;;;;;;;2.85;1.20;;;12.20;89.00;;;;;;5095783;28;20071;-73
2024/04/01 12:29:52;;;;;;;1.05;0.70;;;12.20;88.90;;;;;;5113746;28;20043;-74
2024/04/01 12:32:20;;;;;;;1.52;0.80;;;12.30;89.00;;;;;;5113604;28;20043;-74
2024/04/01 12:34:46;;;;;;;1.40;0.77;;;12.30;88.90;;;;;;5113929;28;20032;-74
2024/04/01 12:37:13;;;;;;;2.05;0.90;;;12.60;88.70;;;;;;5093620;28;20044;-74
2024/04/01 12:39:48;;;;;;;0.63;0.63;;;12.60;88.60;;;;;;5095520;28;20115;-74
2024/04/01 12:42:18;;;;;;;1.10;0.80;;;12.70;88.20;;;;;;5095760;28;20514;-74
2024/04/01 12:44:48;;;;;;;1.10;0.73;;;12.70;88.10;;;;;;5113958;28;20534;-74
2024/04/01 12:47:20;;;;;;;2.38;0.85;;;13.00;87.90;;;;;;5060826;28;20040;-74
2024/04/01 12:49:46;;;;;;;1.13;0.90;;;13.10;87.60;;;;;;5050473;28;20500;-74
2024/04/01 12:52:18;;;;;;;2.33;0.80;;;13.20;87.10;;;;;;5050531;28;20128;-73
2024/04/01 12:55:02;;;;;;;1.23;1.00;;;13.10;86.80;;;;;;5035471;28;20037;-74
2024/04/01 12:57:49;;;;;;;1.85;0.80;;;13.00;86.90;;;;;;5035612;28;20040;-73
2024/04/01 13:00:24;;;;;;;0.90;0.80;;;12.80;87.20;;;;;;5050518;28;20123;-74
2024/04/01 13:03:19;;;;;;;0.93;0.90;;;12.90;87.50;;;;;;5034194;28;20079;-74
2024/04/01 13:06:04;;;;;;;0.82;0.70;;;12.90;87.60;;;;;;4994129;28;20072;-74